»·PEaware :: N46420 KBFL-KMHV

N46420 :: KBFL-KMHV

FLIGHT INFORMATION

Flight Status: Arrived
Operator: Privately registered:
United States
More flights under this callsign
Pilot: Nickolaus B. (17683)
Aircraft: CESSNA 172 SKYHAWK
(C172)
More flights by this aircraft type
Origin: KBFL Meadows
United States
Destination: KMHV Mojave
United States
More flights between these airports :: More routes between these airports
Route:
File this flight plan on PilotEdge
Remarks: CAT-6
Altitude:
(Current/Filed)
7,500ft
Speed:
(Current/Filed)
130kts
Departed: 29-Dec-17 10:51 PM
Arrived: 29-Dec-17 11:22 PM
Distance/Time
Traveled:
50nm/0:30
Distance/Time
To Go:
Arrived

Flight Plot

Page will automatically refresh every two minutes.


Map Options




Map Legend


Flown Route
Filed Route
Departure Airport
Arrival Airport
Navaid (VOR, NDB)
Fix

Horizontal Profiles

Position Reports

Time Latitude Longitude Heading Altitude Ground
Speed
29-Dec-17 22:42 35.426192 -119.042681 179 484ft 0kts
29-Dec-17 22:43 35.426192 -119.042681 179 484ft 0kts
29-Dec-17 22:44 35.426192 -119.042681 179 484ft 0kts
29-Dec-17 22:45 35.426192 -119.042681 179 484ft 0kts
29-Dec-17 22:46 35.426192 -119.042681 179 484ft 0kts
29-Dec-17 22:47 35.426192 -119.042681 179 484ft 0kts
29-Dec-17 22:48 35.426192 -119.042681 179 484ft 0kts
29-Dec-17 22:49 35.426192 -119.042681 179 484ft 0kts
29-Dec-17 22:50 35.426192 -119.042681 179 484ft 0kts
29-Dec-17 22:51 35.426192 -119.042681 179 484ft 0kts
29-Dec-17 22:52 35.426192 -119.042681 179 484ft 0kts
29-Dec-17 22:53 35.425707 -119.042716 192 482ft 9kts
29-Dec-17 22:54 35.425465 -119.044807 279 478ft 0kts
29-Dec-17 22:55 35.425465 -119.044807 279 478ft 0kts
29-Dec-17 22:56 35.426181 -119.046920 315 477ft 26kts
29-Dec-17 22:57 35.440805 -119.066819 320 1302ft 88kts
29-Dec-17 22:58 35.461319 -119.081144 15 2317ft 86kts
29-Dec-17 22:59 35.468582 -119.059050 121 3292ft 85kts
29-Dec-17 23:00 35.456342 -119.035820 118 4286ft 77kts
29-Dec-17 23:01 35.446531 -119.014999 117 5273ft 63kts
29-Dec-17 23:02 35.438071 -118.994525 120 5798ft 95kts
29-Dec-17 23:03 35.423944 -118.964594 119 6302ft 104kts
29-Dec-17 23:04 35.410538 -118.934865 115 6949ft 100kts
29-Dec-17 23:05 35.396889 -118.903962 116 7542ft 107kts
29-Dec-17 23:06 35.380286 -118.866506 116 7513ft 132kts
29-Dec-17 23:07 35.362734 -118.826809 116 7513ft 133kts
29-Dec-17 23:08 35.345211 -118.787142 116 7507ft 132kts
29-Dec-17 23:09 35.327658 -118.747382 116 7472ft 133kts
29-Dec-17 23:10 35.310027 -118.707484 116 7437ft 133kts
29-Dec-17 23:11 35.293388 -118.670281 117 7405ft 133kts
29-Dec-17 23:12 35.275532 -118.631578 117 7371ft 133kts
29-Dec-17 23:13 35.257946 -118.592153 117 7373ft 132kts
29-Dec-17 23:14 35.240310 -118.552509 117 7341ft 132kts
29-Dec-17 23:15 35.222811 -118.513211 117 7340ft 131kts
29-Dec-17 23:16 35.205302 -118.473934 117 7340ft 131kts
29-Dec-17 23:17 35.187835 -118.434801 117 7340ft 131kts
29-Dec-17 23:18 35.170288 -118.395517 117 7340ft 131kts
29-Dec-17 23:19 35.152737 -118.356281 117 7340ft 131kts
29-Dec-17 23:20 35.135226 -118.317285 118 7000ft 137kts
29-Dec-17 23:21 35.117203 -118.277245 118 6132ft 128kts
29-Dec-17 23:22 35.101295 -118.241865 117 5231ft 114kts
29-Dec-17 23:23 35.082734 -118.209017 129 4239ft 112kts
29-Dec-17 23:24 35.070061 -118.181982 85 3773ft 83kts
29-Dec-17 23:25 35.071313 -118.153194 83 3768ft 79kts
29-Dec-17 23:26 35.068691 -118.131648 164 3562ft 74kts
29-Dec-17 23:27 35.059140 -118.142534 277 2740ft 51kts
29-Dec-17 23:28 35.059240 -118.150642 277 2751ft 16kts
29-Dec-17 23:29 35.059734 -118.151406 316 2755ft 0kts
29-Dec-17 23:30 35.059734 -118.151406 316 2755ft 0kts
29-Dec-17 23:31 35.059085 -118.150596 139 2751ft 20kts
29-Dec-17 23:32 35.057608 -118.151014 266 2749ft 10kts
29-Dec-17 23:33 35.056926 -118.152021 11 2748ft 0kts
29-Dec-17 23:34 35.056926 -118.152021 11 2748ft 0kts
29-Dec-17 23:35 35.056926 -118.152021 12 2748ft 0kts
29-Dec-17 23:36 35.056926 -118.152021 12 2748ft 0kts
29-Dec-17 23:37 35.056926 -118.152021 12 2748ft 0kts

Navigation Log

Ident Type
1. KBFL Airport
2. KMHV Airport